Time;durP1;ratioP1;P1;durP2;ratioP2;P2;SDS_P1;SDS_P2;PMS_P1;PMS_P2;Temp;Humidity;BMP_temperature;BMP_pressure;BME280_temperature;BME280_humidity;BME280_pressure;Samples;Min_cycle;Max_cycle;Signal;HPM_P1;HPM_P2
2022/12/15 00:39:15;;;;;;;20.23;11.35;;;-4.60;99.90;;;;;;5053967;28;20233;-78
2022/12/15 00:41:42;;;;;;;27.27;13.60;;;-4.50;99.90;;;;;;5054981;28;20212;-78
2022/12/15 00:44:08;;;;;;;27.23;13.05;;;-4.50;99.90;;;;;;5046882;28;20217;-79
2022/12/15 00:46:54;;;;;;;25.38;14.02;;;-4.50;99.90;;;;;;5056129;28;20197;-79
2022/12/15 01:22:20;;;;;;;23.88;11.27;;;-4.70;99.90;;;;;;5051834;28;20204;-79
2022/12/15 01:24:47;;;;;;;23.73;14.05;;;-4.70;99.90;;;;;;5047746;28;20305;-78
2022/12/15 01:27:14;;;;;;;19.95;11.77;;;-4.70;99.90;;;;;;5056704;28;20674;-78
2022/12/15 01:29:41;;;;;;;25.88;13.57;;;-4.70;99.90;;;;;;5056598;28;20197;-79
2022/12/15 01:32:08;;;;;;;22.80;12.02;;;-4.80;99.90;;;;;;5058949;28;20207;-79
2022/12/15 01:34:36;;;;;;;21.23;13.18;;;-4.70;99.90;;;;;;5057486;28;20769;-79
2022/12/15 01:37:02;;;;;;;24.13;12.75;;;-4.70;99.90;;;;;;5044668;28;20225;-78
2022/12/15 01:40:43;;;;;;;20.45;11.98;;;-4.70;99.90;;;;;;5038402;28;20202;-79
2022/12/15 01:42:15;;;;;;;22.30;12.52;;;-4.70;99.90;;;;;;5018488;28;20671;-79
2022/12/15 01:44:43;;;;;;;26.45;13.40;;;-4.70;99.90;;;;;;5042186;28;20222;-78
2022/12/15 01:47:13;;;;;;;32.00;14.00;;;-4.70;99.90;;;;;;5038596;28;20208;-79
2022/12/15 01:49:46;;;;;;;21.60;12.57;;;-4.70;99.90;;;;;;5038102;28;20208;-79
2022/12/15 01:52:15;;;;;;;17.08;10.77;;;-4.70;99.90;;;;;;5018941;28;20310;-79
2022/12/15 01:54:46;;;;;;;19.48;11.40;;;-4.60;99.90;;;;;;5041439;28;20635;-79
2022/12/15 01:57:17;;;;;;;23.15;11.20;;;-4.60;99.90;;;;;;5057744;28;20260;-79
2022/12/15 01:59:49;;;;;;;25.55;11.65;;;-4.60;99.90;;;;;;5058206;28;20189;-79
2022/12/15 02:02:19;;;;;;;22.63;11.25;;;-4.50;99.90;;;;;;5050247;28;20198;-78
2022/12/15 02:04:50;;;;;;;21.30;12.00;;;-4.50;99.90;;;;;;5050434;28;20243;-79
2022/12/15 02:07:17;;;;;;;20.02;11.35;;;-4.50;99.90;;;;;;5069548;28;20265;-78
2022/12/15 02:09:47;;;;;;;21.35;11.95;;;-4.40;99.90;;;;;;5069507;28;20277;-79
2022/12/15 02:12:23;;;;;;;24.35;12.20;;;-4.40;99.90;;;;;;5047210;28;20678;-80
2022/12/15 02:15:08;;;;;;;26.13;11.30;;;-4.40;99.90;;;;;;5052042;28;20301;-80
2022/12/15 02:17:41;;;;;;;26.88;10.93;;;-4.30;99.90;;;;;;5040689;28;20222;-79
2022/12/15 02:20:43;;;;;;;26.27;12.48;;;-4.40;99.90;;;;;;5045037;28;20190;-79
2022/12/15 02:23:40;;;;;;;22.27;12.00;;;-4.30;99.90;;;;;;5056173;28;22323;-80
2022/12/15 02:26:42;;;;;;;24.20;10.73;;;-4.30;99.90;;;;;;5038561;28;20198;-79
2022/12/15 02:29:22;;;;;;;21.40;11.80;;;-4.30;99.90;;;;;;5034505;28;20397;-79
2022/12/15 02:31:55;;;;;;;25.17;12.25;;;-4.30;99.90;;;;;;5058335;28;20189;-80
2022/12/15 02:34:30;;;;;;;22.20;12.13;;;-4.30;99.90;;;;;;5054503;28;20252;-79
2022/12/15 02:37:01;;;;;;;28.88;12.48;;;-4.20;99.90;;;;;;5041510;28;20209;-79
2022/12/15 02:39:29;;;;;;;21.00;11.60;;;-4.20;99.90;;;;;;5058849;28;20198;-79
2022/12/15 02:41:56;;;;;;;21.58;10.95;;;-4.10;99.90;;;;;;5060759;28;20212;-80
2022/12/15 02:44:26;;;;;;;22.58;11.45;;;-4.20;99.90;;;;;;5043625;28;20222;-79
2022/12/15 02:47:22;;;;;;;17.88;10.27;;;-4.10;99.90;;;;;;5040993;28;20194;-79
2022/12/15 02:50:10;;;;;;;20.13;11.45;;;-4.10;99.90;;;;;;5015720;28;20209;-79
2022/12/15 02:52:49;;;;;;;22.17;12.63;;;-4.10;99.90;;;;;;5023698;28;20213;-80
2022/12/15 02:55:25;;;;;;;23.88;10.95;;;-4.10;99.90;;;;;;5045998;28;20208;-80
2022/12/15 02:58:00;;;;;;;20.33;9.25;;;-4.10;99.90;;;;;;5039881;28;20216;-79
2022/12/15 03:00:29;;;;;;;19.55;10.88;;;-4.10;99.90;;;;;;5040451;28;20186;-79
2022/12/15 03:02:57;;;;;;;16.65;10.43;;;-4.10;99.90;;;;;;5042392;28;20329;-79
2022/12/15 03:05:25;;;;;;;22.98;13.15;;;-4.10;99.90;;;;;;5044446;28;20204;-80
2022/12/15 03:07:53;;;;;;;19.95;10.70;;;-4.00;99.90;;;;;;5040232;28;20576;-79
2022/12/15 03:10:23;;;;;;;18.20;11.52;;;-4.10;99.90;;;;;;5060407;28;20205;-80
2022/12/15 03:12:53;;;;;;;18.75;9.88;;;-4.00;99.90;;;;;;5059895;28;20688;-80
2022/12/15 03:15:20;;;;;;;22.30;10.43;;;-4.10;99.90;;;;;;5054500;28;20213;-80
2022/12/15 03:17:47;;;;;;;29.00;11.93;;;-4.10;99.90;;;;;;5059046;28;20710;-79
2022/12/15 03:20:15;;;;;;;19.27;10.55;;;-4.10;99.90;;;;;;5039302;28;20212;-79
2022/12/15 03:22:43;;;;;;;22.88;11.10;;;-4.10;99.90;;;;;;5039527;28;20206;-80
2022/12/15 03:25:10;;;;;;;22.90;12.70;;;-4.10;99.90;;;;;;5043244;28;20229;-80
2022/12/15 03:27:37;;;;;;;18.35;10.77;;;-4.10;99.90;;;;;;5038897;28;20293;-81
2022/12/15 03:30:05;;;;;;;28.42;13.10;;;-4.10;99.90;;;;;;5054318;28;20201;-80
2022/12/15 03:32:32;;;;;;;26.45;12.65;;;-4.00;99.90;;;;;;5057053;28;20219;-80
2022/12/15 03:34:59;;;;;;;27.25;13.00;;;-3.90;99.90;;;;;;5051479;28;20221;-79
2022/12/15 03:37:28;;;;;;;18.73;11.18;;;-3.90;99.90;;;;;;5056150;28;20316;-79
2022/12/15 03:39:55;;;;;;;17.40;10.30;;;-3.90;99.90;;;;;;5041406;28;20200;-80
2022/12/15 03:45:03;;;;;;;21.40;12.40;;;-3.90;99.90;;;;;;5037860;28;20275;-78
2022/12/15 03:47:30;;;;;;;28.10;12.73;;;-3.90;99.90;;;;;;5036034;28;20621;-80
2022/12/15 03:49:57;;;;;;;27.92;12.20;;;-3.90;99.90;;;;;;5049211;28;20318;-80
2022/12/15 03:52:24;;;;;;;24.67;13.70;;;-4.00;99.90;;;;;;5056416;28;20209;-80
2022/12/15 03:54:52;;;;;;;25.33;11.38;;;-3.90;99.90;;;;;;5052265;28;20217;-79
2022/12/15 03:57:19;;;;;;;23.63;10.93;;;-3.90;99.90;;;;;;5056437;28;20701;-80
2022/12/15 03:59:46;;;;;;;20.13;10.50;;;-3.90;99.90;;;;;;5043683;28;20202;-80
2022/12/15 04:02:12;;;;;;;23.75;10.95;;;-3.80;99.90;;;;;;5036552;28;20232;-80
2022/12/15 04:04:39;;;;;;;22.05;11.82;;;-3.90;99.90;;;;;;5036301;28;20228;-79
2022/12/15 04:07:06;;;;;;;22.38;12.90;;;-3.80;99.90;;;;;;5035220;28;20204;-79
2022/12/15 04:09:33;;;;;;;19.65;12.63;;;-3.80;99.90;;;;;;5042993;28;20212;-80
2022/12/15 04:12:02;;;;;;;26.13;13.38;;;-3.90;99.90;;;;;;5055633;28;20209;-80
2022/12/15 04:14:29;;;;;;;21.38;11.77;;;-3.90;99.90;;;;;;5049100;28;20631;-80
2022/12/15 04:16:56;;;;;;;19.77;11.27;;;-3.90;99.90;;;;;;5037667;28;20726;-80
2022/12/15 04:22:07;;;;;;;27.55;12.35;;;-3.90;99.90;;;;;;5056929;28;20191;-80
2022/12/15 05:33:14;;;;;;;16.10;11.02;;;-4.50;99.90;;;;;;4998044;28;20230;-81
2022/12/15 05:35:41;;;;;;;20.08;11.50;;;-4.50;99.90;;;;;;5000458;28;20726;-82
2022/12/15 05:38:08;;;;;;;21.88;11.50;;;-4.60;99.90;;;;;;5000957;28;20757;-81
2022/12/15 05:40:35;;;;;;;21.50;12.15;;;-4.50;99.90;;;;;;4996469;28;20204;-82
2022/12/15 05:43:01;;;;;;;26.23;12.82;;;-4.60;99.90;;;;;;4981762;28;20565;-81
2022/12/15 05:45:28;;;;;;;20.65;11.85;;;-4.50;99.90;;;;;;4989567;28;20322;-82
2022/12/15 05:47:56;;;;;;;14.02;9.95;;;-4.60;99.90;;;;;;5008218;28;20270;-83
2022/12/15 05:50:24;;;;;;;17.10;10.23;;;-4.70;99.90;;;;;;5004955;28;20208;-83
2022/12/15 05:52:51;;;;;;;18.60;10.98;;;-4.60;99.90;;;;;;5005933;28;20211;-82
2022/12/15 05:55:19;;;;;;;19.70;11.50;;;-4.60;99.90;;;;;;4995780;28;20787;-84
2022/12/15 05:57:51;;;;;;;15.20;10.50;;;-4.60;99.90;;;;;;4986645;28;20311;-83
2022/12/15 06:00:18;;;;;;;18.92;9.95;;;-4.60;99.90;;;;;;4992791;28;20259;-82
2022/12/15 06:02:45;;;;;;;17.70;8.88;;;-4.60;99.90;;;;;;5010424;28;20271;-83
2022/12/15 06:05:11;;;;;;;18.45;9.38;;;-4.60;99.90;;;;;;5001729;28;20287;-81
2022/12/15 06:07:40;;;;;;;21.95;10.98;;;-4.60;99.90;;;;;;4995561;28;20276;-81
2022/12/15 06:10:07;;;;;;;21.90;11.00;;;-4.60;99.90;;;;;;4998687;28;20204;-81
2022/12/15 06:12:42;;;;;;;21.50;11.48;;;-4.60;99.90;;;;;;4995362;28;20260;-81
2022/12/15 06:15:10;;;;;;;25.33;10.95;;;-4.60;99.90;;;;;;5068051;22;20301;-82
2022/12/15 06:17:36;;;;;;;21.35;11.15;;;-4.60;99.90;;;;;;5037412;28;20223;-82
2022/12/15 06:20:06;;;;;;;18.67;10.32;;;-4.60;99.90;;;;;;5035862;28;20211;-82
2022/12/15 06:22:32;;;;;;;16.80;10.77;;;-4.60;99.90;;;;;;5025318;28;20238;-80
2022/12/15 06:25:00;;;;;;;17.33;10.20;;;-4.60;99.90;;;;;;5034485;28;20772;-81
2022/12/15 06:27:29;;;;;;;18.00;10.98;;;-4.60;99.90;;;;;;5038471;28;20221;-81
2022/12/15 06:29:55;;;;;;;21.60;11.38;;;-4.60;99.90;;;;;;5028181;28;20195;-84
2022/12/15 06:32:22;;;;;;;17.73;11.48;;;-4.60;99.90;;;;;;5024437;28;20230;-84
2022/12/15 06:34:49;;;;;;;19.83;10.43;;;-4.60;99.90;;;;;;5025167;28;20297;-84
2022/12/15 06:37:16;;;;;;;25.05;12.43;;;-4.70;99.90;;;;;;5023113;28;20242;-80
2022/12/15 06:39:43;;;;;;;16.63;10.45;;;-4.70;99.90;;;;;;5018051;28;20213;-80
2022/12/15 06:42:11;;;;;;;22.27;11.50;;;-4.80;99.90;;;;;;5022608;28;20203;-80
2022/12/15 06:44:38;;;;;;;24.13;12.38;;;-4.80;99.90;;;;;;5022353;28;20222;-80
2022/12/15 06:47:05;;;;;;;16.58;10.75;;;-4.80;99.90;;;;;;5023502;28;20209;-81
2022/12/15 06:49:32;;;;;;;13.95;9.93;;;-4.70;99.90;;;;;;5019373;28;20218;-79
2022/12/15 06:51:59;;;;;;;21.30;10.55;;;-4.70;99.90;;;;;;5026871;28;20290;-82
2022/12/15 06:54:25;;;;;;;24.35;10.95;;;-4.80;99.90;;;;;;5018228;28;20222;-80
2022/12/15 06:56:52;;;;;;;21.98;11.13;;;-4.80;99.90;;;;;;5020506;28;20206;-81
2022/12/15 06:59:20;;;;;;;18.92;10.80;;;-4.80;99.90;;;;;;5023391;28;20198;-81
2022/12/15 07:01:47;;;;;;;24.05;11.30;;;-4.70;99.90;;;;;;5019324;28;20686;-81
2022/12/15 07:04:14;;;;;;;18.85;11.85;;;-4.70;99.90;;;;;;5018932;28;20230;-80
2022/12/15 07:06:41;;;;;;;20.45;12.75;;;-4.70;99.90;;;;;;5020088;28;20203;-80
2022/12/15 07:09:14;;;;;;;17.95;11.13;;;-4.80;99.90;;;;;;5025688;28;20212;-79
2022/12/15 07:11:41;;;;;;;23.20;12.95;;;-4.80;99.90;;;;;;5026196;28;20697;-81
2022/12/15 07:14:09;;;;;;;20.33;11.52;;;-4.80;99.90;;;;;;5018382;28;20236;-81
2022/12/15 07:16:38;;;;;;;23.02;12.18;;;-4.80;99.90;;;;;;5008701;28;20206;-79
2022/12/15 07:19:05;;;;;;;25.95;14.20;;;-4.70;99.90;;;;;;5017300;28;20612;-79
2022/12/15 07:21:32;;;;;;;19.63;11.40;;;-4.70;99.90;;;;;;5029069;28;20208;-81
2022/12/15 07:23:59;;;;;;;22.63;11.98;;;-4.70;99.90;;;;;;5025110;28;20222;-80
2022/12/15 07:26:26;;;;;;;21.13;11.95;;;-4.70;99.90;;;;;;5037921;28;20658;-81
2022/12/15 07:28:53;;;;;;;25.48;13.18;;;-4.80;99.90;;;;;;5031631;28;20201;-81
2022/12/15 07:31:20;;;;;;;15.50;10.38;;;-4.70;99.90;;;;;;5017765;28;20234;-81
2022/12/15 07:33:50;;;;;;;17.55;10.32;;;-4.80;99.90;;;;;;5033606;28;20249;-80
2022/12/15 07:36:17;;;;;;;26.67;12.43;;;-4.70;99.90;;;;;;5018100;28;20201;-81
2022/12/15 07:38:45;;;;;;;19.35;11.85;;;-4.70;99.90;;;;;;5017418;28;20229;-82
2022/12/15 07:41:11;;;;;;;27.92;12.55;;;-4.80;99.90;;;;;;5018057;28;20211;-80
2022/12/15 07:43:38;;;;;;;19.98;11.77;;;-4.70;99.90;;;;;;5032296;28;20199;-81
2022/12/15 07:46:05;;;;;;;27.05;12.10;;;-4.70;99.90;;;;;;5018321;28;20266;-81
2022/12/15 07:48:33;;;;;;;27.15;13.30;;;-4.60;99.90;;;;;;5016604;28;20207;-81
2022/12/15 07:51:05;;;;;;;19.42;10.82;;;-4.60;99.90;;;;;;5017183;28;20618;-78
2022/12/15 07:53:32;;;;;;;17.55;11.20;;;-4.60;99.90;;;;;;5031898;28;20253;-79
2022/12/15 07:56:00;;;;;;;20.33;11.18;;;-4.50;99.90;;;;;;5024049;28;20285;-81
2022/12/15 07:58:27;;;;;;;21.40;12.20;;;-4.50;99.90;;;;;;5035316;28;20317;-81
2022/12/15 08:00:54;;;;;;;23.85;13.02;;;-4.50;99.90;;;;;;4997858;28;20214;-79
2022/12/15 08:03:21;;;;;;;23.95;11.98;;;-4.50;99.90;;;;;;5028090;28;20285;-81
2022/12/15 08:05:48;;;;;;;22.75;10.77;;;-4.50;99.90;;;;;;5017334;28;20223;-78
2022/12/15 08:08:17;;;;;;;21.60;12.15;;;-4.50;99.90;;;;;;5016245;28;20207;-80
2022/12/15 08:10:44;;;;;;;18.75;11.65;;;-4.40;99.90;;;;;;5017148;28;20203;-79
2022/12/15 08:13:11;;;;;;;28.30;15.35;;;-4.50;99.90;;;;;;5026393;28;20199;-81
2022/12/15 08:15:38;;;;;;;17.17;11.00;;;-4.50;99.90;;;;;;5017491;28;20727;-82
2022/12/15 08:18:06;;;;;;;22.00;12.77;;;-4.40;99.90;;;;;;5033575;28;20316;-82
2022/12/15 08:20:33;;;;;;;25.08;12.85;;;-4.30;99.90;;;;;;5027747;28;20281;-82
2022/12/15 08:23:00;;;;;;;22.85;11.57;;;-4.30;99.90;;;;;;5036014;28;20198;-80
2022/12/15 08:25:29;;;;;;;21.02;11.85;;;-4.30;99.90;;;;;;5025302;28;20309;-82
2022/12/15 08:27:56;;;;;;;20.02;11.85;;;-4.20;99.90;;;;;;5035164;28;20209;-81
2022/12/15 08:30:23;;;;;;;23.88;11.93;;;-4.20;99.90;;;;;;5033551;28;20210;-81
2022/12/15 08:32:51;;;;;;;20.55;12.80;;;-4.10;99.90;;;;;;5036688;28;20591;-80
2022/12/15 08:35:17;;;;;;;17.85;11.55;;;-4.10;99.90;;;;;;5035779;28;20239;-81
2022/12/15 08:37:45;;;;;;;23.88;12.85;;;-4.10;99.90;;;;;;5036250;28;20226;-81
2022/12/15 08:40:12;;;;;;;22.58;13.25;;;-4.00;99.90;;;;;;5015897;28;20209;-80
2022/12/15 08:42:40;;;;;;;21.63;12.77;;;-4.00;99.90;;;;;;5016292;28;20213;-81
2022/12/15 08:45:09;;;;;;;22.50;13.25;;;-4.00;99.90;;;;;;5015973;28;20237;-81
2022/12/15 08:47:36;;;;;;;30.83;14.52;;;-3.90;99.90;;;;;;5015932;28;20213;-81
2022/12/15 08:50:04;;;;;;;26.70;14.13;;;-3.80;99.90;;;;;;5015534;28;20215;-81
2022/12/15 08:52:30;;;;;;;20.98;12.57;;;-3.80;99.90;;;;;;5015362;28;20289;-80
2022/12/15 08:54:57;;;;;;;19.80;12.15;;;-3.70;99.90;;;;;;5018462;28;20249;-81
2022/12/15 08:57:24;;;;;;;24.42;13.25;;;-3.70;99.90;;;;;;5035955;28;20928;-81
2022/12/15 08:59:52;;;;;;;19.80;13.38;;;-3.60;99.90;;;;;;5035049;28;20221;-80
2022/12/15 09:02:19;;;;;;;24.42;12.38;;;-3.60;99.90;;;;;;5036010;28;20208;-80
2022/12/15 09:04:46;;;;;;;27.30;12.85;;;-3.50;99.90;;;;;;5035640;28;20294;-81
2022/12/15 09:07:13;;;;;;;24.13;13.75;;;-3.50;99.90;;;;;;5036061;28;20713;-81
2022/12/15 09:09:40;;;;;;;21.83;12.55;;;-3.40;99.90;;;;;;5034990;28;20277;-81
2022/12/15 09:12:08;;;;;;;20.35;12.70;;;-3.40;99.90;;;;;;5033570;28;20212;-81
2022/12/15 09:14:34;;;;;;;19.92;12.65;;;-3.30;99.90;;;;;;5036374;28;20233;-79
2022/12/15 09:17:03;;;;;;;17.75;12.10;;;-3.20;99.90;;;;;;5035975;28;20202;-80
2022/12/15 09:19:30;;;;;;;19.77;12.98;;;-3.20;99.90;;;;;;5035722;28;20284;-80
2022/12/15 09:21:56;;;;;;;25.60;13.43;;;-3.20;99.90;;;;;;5038998;28;20224;-81
2022/12/15 09:24:23;;;;;;;23.88;12.50;;;-3.10;99.90;;;;;;5043111;28;20293;-80
2022/12/15 09:26:50;;;;;;;23.30;12.93;;;-3.10;99.90;;;;;;5042878;28;20297;-81
2022/12/15 09:29:17;;;;;;;25.30;13.73;;;-3.00;99.90;;;;;;5033310;28;20204;-81
2022/12/15 09:31:45;;;;;;;22.27;12.95;;;-2.90;99.90;;;;;;5036176;28;20218;-81
2022/12/15 09:34:15;;;;;;;26.85;14.57;;;-3.00;99.90;;;;;;5037339;28;20252;-81
2022/12/15 09:36:42;;;;;;;21.92;14.00;;;-2.90;99.90;;;;;;5040015;28;20202;-81
2022/12/15 09:39:10;;;;;;;22.20;13.50;;;-2.80;99.90;;;;;;5038640;28;20226;-81
2022/12/15 09:41:39;;;;;;;24.40;13.73;;;-2.80;99.90;;;;;;5040181;28;20212;-81
2022/12/15 09:44:10;;;;;;;24.98;14.30;;;-2.70;99.90;;;;;;5037844;28;20321;-82
2022/12/15 09:46:49;;;;;;;23.08;14.90;;;-2.70;99.90;;;;;;5019170;28;20195;-82
2022/12/15 09:49:27;;;;;;;25.50;13.68;;;-2.60;99.90;;;;;;5019141;28;20187;-80
2022/12/15 09:52:03;;;;;;;24.48;14.25;;;-2.60;99.90;;;;;;5019275;28;20282;-81
2022/12/15 09:54:33;;;;;;;21.23;12.25;;;-2.50;99.90;;;;;;5019303;28;20233;-81
2022/12/15 09:57:05;;;;;;;22.95;13.65;;;-2.50;99.90;;;;;;5019136;28;20213;-81
2022/12/15 09:59:37;;;;;;;25.25;13.65;;;-2.40;99.90;;;;;;5018313;28;20241;-80
2022/12/15 10:02:26;;;;;;;24.50;13.05;;;-2.40;99.90;;;;;;5032566;28;20195;-81
2022/12/15 10:05:00;;;;;;;24.90;13.98;;;-2.20;99.90;;;;;;5039380;28;20338;-80
2022/12/15 10:07:33;;;;;;;24.40;13.82;;;-2.10;99.90;;;;;;5039156;28;20210;-81
2022/12/15 10:10:07;;;;;;;21.88;13.77;;;-2.00;99.90;;;;;;5038068;28;20221;-80
2022/12/15 10:12:37;;;;;;;26.38;12.70;;;-2.00;99.90;;;;;;5038588;28;20671;-80
2022/12/15 10:15:12;;;;;;;22.27;13.98;;;-1.90;99.90;;;;;;5038853;28;20328;-80
2022/12/15 10:17:47;;;;;;;22.08;13.52;;;-1.80;99.90;;;;;;5037636;28;20254;-81
2022/12/15 10:20:19;;;;;;;31.73;14.15;;;-1.70;99.90;;;;;;5038823;28;20209;-80
2022/12/15 10:22:46;;;;;;;20.98;13.45;;;-1.60;99.90;;;;;;5036542;28;20599;-80
2022/12/15 10:25:17;;;;;;;23.63;13.20;;;-1.50;99.90;;;;;;5039070;28;20230;-81
2022/12/15 10:28:07;;;;;;;24.45;12.93;;;-1.50;99.90;;;;;;5038290;28;20216;-80
2022/12/15 10:30:35;;;;;;;23.38;15.40;;;-1.40;99.90;;;;;;5019617;28;20675;-80
2022/12/15 10:33:10;;;;;;;31.77;16.23;;;-1.40;99.90;;;;;;5038596;28;20206;-81
2022/12/15 10:35:40;;;;;;;23.50;13.80;;;-1.30;99.90;;;;;;5029188;28;20232;-80
2022/12/15 10:38:28;;;;;;;23.83;12.43;;;-1.20;99.90;;;;;;5017710;28;20781;-80
2022/12/15 10:40:58;;;;;;;24.33;14.38;;;-1.20;99.90;;;;;;5016594;28;20218;-80
2022/12/15 10:43:28;;;;;;;23.92;12.20;;;-1.10;99.90;;;;;;5017999;28;20221;-80
2022/12/15 10:46:10;;;;;;;26.52;14.18;;;-0.90;99.90;;;;;;5017165;28;20213;-80
2022/12/15 10:48:38;;;;;;;27.73;15.82;;;-0.80;99.90;;;;;;5029897;28;20667;-81
2022/12/15 10:51:20;;;;;;;38.35;14.32;;;-0.80;99.90;;;;;;5038200;28;20214;-81
2022/12/15 10:53:48;;;;;;;24.63;13.52;;;-0.70;99.90;;;;;;5011438;28;20718;-80
2022/12/15 10:56:21;;;;;;;26.08;14.32;;;-0.60;99.90;;;;;;5018305;28;20210;-81
2022/12/15 10:58:51;;;;;;;26.33;14.48;;;-0.60;99.90;;;;;;5010194;28;20229;-80
2022/12/15 11:01:20;;;;;;;22.73;13.68;;;-0.60;99.90;;;;;;5037306;28;20208;-81
2022/12/15 11:03:50;;;;;;;26.73;14.32;;;-0.50;99.90;;;;;;5031366;28;20243;-81
2022/12/15 11:06:21;;;;;;;28.25;14.68;;;-0.40;99.90;;;;;;5019064;28;20235;-80
2022/12/15 11:08:51;;;;;;;23.52;13.52;;;-0.30;99.90;;;;;;5018709;28;20203;-80
2022/12/15 11:14:17;;;;;;;26.40;14.13;;;-0.20;99.90;;;;;;5043199;28;20226;-80
2022/12/15 11:16:51;;;;;;;29.83;15.85;;;0.00;99.90;;;;;;5043598;28;20276;-79
2022/12/15 11:19:30;;;;;;;21.92;12.98;;;0.30;99.90;;;;;;5004992;28;20323;-79
2022/12/15 11:22:02;;;;;;;23.52;13.55;;;0.70;99.90;;;;;;5029441;28;20602;-79
2022/12/15 11:24:35;;;;;;;22.80;13.52;;;1.50;99.90;;;;;;5044753;23;20298;-85
2022/12/15 11:27:12;;;;;;;21.50;13.00;;;2.50;99.90;;;;;;5009944;28;20290;-84
2022/12/15 11:29:48;;;;;;;27.93;13.67;;;4.10;99.90;;;;;;5026109;28;20278;-83
2022/12/15 11:32:18;;;;;;;19.07;12.60;;;5.50;99.90;;;;;;5026320;28;20555;-84
2022/12/15 11:34:46;;;;;;;22.77;15.30;;;6.40;99.90;;;;;;5028470;28;20470;-83
2022/12/15 11:37:32;;;;;;;23.27;12.80;;;6.70;99.90;;;;;;5028822;28;20519;-84
2022/12/15 11:40:20;;;;;;;22.03;12.10;;;6.50;99.90;;;;;;5015585;28;20546;-83
2022/12/15 11:43:00;;;;;;;26.57;13.37;;;6.40;99.90;;;;;;5003476;28;20523;-84
2022/12/15 11:45:36;;;;;;;20.33;13.33;;;5.60;99.90;;;;;;5031168;28;20529;-83
2022/12/15 11:48:11;;;;;;;22.20;15.43;;;5.00;99.90;;;;;;5028566;28;20450;-83
2022/12/15 11:50:44;;;;;;;22.40;13.67;;;4.80;99.90;;;;;;5011395;28;20518;-83
2022/12/15 11:53:36;;;;;;;20.87;13.10;;;5.20;99.90;;;;;;5022334;28;20486;-84
2022/12/15 11:56:08;;;;;;;22.10;12.77;;;5.80;99.90;;;;;;5015590;28;20458;-83
2022/12/15 11:58:50;;;;;;;22.47;12.80;;;7.40;99.90;;;;;;5020143;28;20514;-84
2022/12/15 12:01:28;;;;;;;20.27;12.80;;;8.50;99.90;;;;;;5022418;28;20436;-83
2022/12/15 12:04:09;;;;;;;29.30;15.67;;;9.70;99.90;;;;;;5013931;28;20449;-84
2022/12/15 12:06:56;;;;;;;23.90;14.50;;;10.40;99.70;;;;;;5017155;28;20456;-84
2022/12/15 12:09:30;;;;;;;24.77;14.00;;;11.30;96.60;;;;;;5016723;28;20877;-84
2022/12/15 12:12:07;;;;;;;22.40;14.33;;;11.20;92.90;;;;;;5001863;28;20474;-84
2022/12/15 12:14:45;;;;;;;22.63;13.70;;;10.60;92.50;;;;;;5017073;28;20549;-83
2022/12/15 12:17:20;;;;;;;22.17;13.60;;;9.60;93.30;;;;;;4990752;28;20826;-82
2022/12/15 12:19:52;;;;;;;25.53;13.53;;;8.10;94.70;;;;;;5000596;28;20485;-84
2022/12/15 12:22:24;;;;;;;22.63;13.50;;;6.50;96.40;;;;;;4995101;28;20458;-84
2022/12/15 12:24:58;;;;;;;22.47;14.60;;;6.00;99.90;;;;;;4996189;28;20479;-83
2022/12/15 12:27:35;;;;;;;24.60;13.90;;;5.20;99.90;;;;;;4991555;28;20479;-83
2022/12/15 12:30:05;;;;;;;26.03;14.80;;;4.60;99.90;;;;;;5010208;28;20511;-84
2022/12/15 12:32:43;;;;;;;18.73;12.70;;;4.50;99.90;;;;;;5020571;28;20451;-84
2022/12/15 12:35:16;;;;;;;29.00;14.47;;;4.20;99.90;;;;;;5018689;28;20477;-82
2022/12/15 12:37:49;;;;;;;26.30;14.03;;;3.60;99.90;;;;;;5008065;28;20568;-83
2022/12/15 12:40:24;;;;;;;24.37;13.40;;;3.40;99.90;;;;;;4997744;28;20554;-82
2022/12/15 12:42:54;;;;;;;28.77;15.47;;;3.30;99.90;;;;;;5007075;28;20486;-83
2022/12/15 12:45:26;;;;;;;21.20;12.77;;;3.10;99.90;;;;;;5000465;28;20475;-83
2022/12/15 12:47:57;;;;;;;22.17;13.77;;;2.90;99.90;;;;;;4995824;28;20478;-83
2022/12/15 12:50:27;;;;;;;22.60;13.33;;;2.80;99.90;;;;;;4994956;28;20826;-84
2022/12/15 12:52:55;;;;;;;31.30;14.97;;;2.60;99.90;;;;;;5009428;28;20465;-84
2022/12/15 12:55:30;;;;;;;30.60;13.93;;;2.50;99.90;;;;;;4999889;28;20512;-84
2022/12/15 12:57:57;;;;;;;26.87;14.97;;;2.40;99.90;;;;;;4999035;28;20461;-84
2022/12/15 13:00:26;;;;;;;25.63;14.70;;;2.20;99.90;;;;;;4983262;28;20489;-83
2022/12/15 13:03:18;;;;;;;27.53;14.77;;;2.00;99.90;;;;;;5010620;28;20433;-83
2022/12/15 13:05:48;;;;;;;21.63;14.03;;;1.90;99.90;;;;;;5000271;28;20471;-83
2022/12/15 13:08:45;;;;;;;26.38;14.80;;;1.90;99.90;;;;;;4999740;28;20533;-83
2022/12/15 13:11:46;;;;;;;31.38;14.88;;;1.80;99.90;;;;;;5003857;28;20203;-83
2022/12/15 13:14:17;;;;;;;30.53;15.17;;;1.60;99.90;;;;;;4989371;28;20254;-83
2022/12/15 13:16:45;;;;;;;32.08;15.20;;;1.60;99.90;;;;;;4994775;28;20512;-83
2022/12/15 13:19:13;;;;;;;30.42;15.70;;;1.60;99.90;;;;;;5018553;28;20226;-83
2022/12/15 13:21:56;;;;;;;27.75;14.43;;;1.50;99.90;;;;;;5019429;28;20217;-82
2022/12/15 13:24:32;;;;;;;30.20;15.40;;;1.40;99.90;;;;;;5017789;28;20496;-82
2022/12/15 13:27:14;;;;;;;21.52;14.05;;;1.50;99.90;;;;;;5017138;28;20425;-82
2022/12/15 13:29:57;;;;;;;23.60;13.53;;;1.50;99.90;;;;;;5009317;28;20189;-82
2022/12/15 13:32:33;;;;;;;26.73;14.63;;;1.40;99.90;;;;;;5027602;28;20448;-84
2022/12/15 13:35:16;;;;;;;25.13;14.20;;;1.40;99.90;;;;;;5015822;28;20225;-83
2022/12/15 13:37:50;;;;;;;26.33;14.90;;;1.40;99.90;;;;;;5024243;28;20249;-82
2022/12/15 13:40:51;;;;;;;24.90;14.73;;;1.30;99.90;;;;;;5017503;28;20228;-83
2022/12/15 13:43:46;;;;;;;29.48;16.35;;;1.20;99.90;;;;;;5016787;28;20212;-83
2022/12/15 13:46:23;;;;;;;26.98;15.23;;;1.20;99.90;;;;;;5017888;28;20729;-84
2022/12/15 13:48:55;;;;;;;24.77;14.57;;;1.20;99.90;;;;;;5010913;28;20262;-83
2022/12/15 13:51:31;;;;;;;26.95;12.88;;;1.20;99.90;;;;;;4993783;28;20300;-84
2022/12/15 13:54:01;;;;;;;26.98;14.55;;;1.10;99.90;;;;;;5002725;28;20643;-83
2022/12/15 13:57:01;;;;;;;25.58;15.73;;;1.10;99.90;;;;;;5009625;28;20213;-83
2022/12/15 13:59:37;;;;;;;28.15;15.63;;;1.00;99.90;;;;;;4958445;28;20234;-83
2022/12/15 14:02:23;;;;;;;29.80;15.63;;;1.00;99.90;;;;;;5012748;28;20741;-83
2022/12/15 14:05:04;;;;;;;31.80;15.73;;;0.90;99.90;;;;;;5013389;28;20229;-83
2022/12/15 14:07:32;;;;;;;23.08;15.00;;;0.80;99.90;;;;;;5004220;28;20694;-82
2022/12/15 14:09:59;;;;;;;24.25;14.38;;;0.80;99.90;;;;;;5011591;28;20210;-83
2022/12/15 14:12:26;;;;;;;27.75;14.40;;;0.80;99.90;;;;;;5017725;28;20206;-83
2022/12/15 14:14:54;;;;;;;26.83;15.88;;;0.80;99.90;;;;;;5013244;28;20623;-83
2022/12/15 14:17:23;;;;;;;30.05;15.82;;;0.70;99.90;;;;;;5005081;28;20261;-83
2022/12/15 14:19:50;;;;;;;32.42;17.65;;;0.70;99.90;;;;;;5012490;28;20669;-82
2022/12/15 14:22:21;;;;;;;33.45;16.75;;;0.60;99.90;;;;;;5012963;28;20223;-82
2022/12/15 14:24:49;;;;;;;30.45;16.05;;;0.60;99.90;;;;;;5014324;28;20235;-82
2022/12/15 14:27:22;;;;;;;32.92;16.73;;;0.60;99.90;;;;;;5016066;28;20209;-82
2022/12/15 14:29:49;;;;;;;28.98;16.13;;;0.40;99.90;;;;;;5020652;28;20660;-82
2022/12/15 14:32:16;;;;;;;31.27;16.65;;;0.40;99.90;;;;;;5018604;28;20205;-82
2022/12/15 14:34:45;;;;;;;35.42;16.15;;;0.40;99.90;;;;;;5020372;28;20235;-82
2022/12/15 14:37:17;;;;;;;30.30;17.90;;;0.40;99.90;;;;;;5021167;28;20296;-83
2022/12/15 14:39:46;;;;;;;35.75;17.60;;;0.30;99.90;;;;;;5019444;28;20222;-83
2022/12/15 14:42:17;;;;;;;36.05;18.60;;;0.20;99.90;;;;;;5011760;28;20598;-83
2022/12/15 14:44:46;;;;;;;27.70;14.85;;;0.20;99.90;;;;;;5003224;28;20735;-83
2022/12/15 14:47:19;;;;;;;27.52;18.08;;;0.10;99.90;;;;;;5000769;28;20766;-82
2022/12/15 14:49:48;;;;;;;33.85;18.63;;;0.00;99.90;;;;;;5019782;28;20223;-83
2022/12/15 14:52:27;;;;;;;29.42;15.65;;;0.00;99.90;;;;;;5019620;28;20216;-82
2022/12/15 14:54:56;;;;;;;35.30;18.25;;;0.00;99.90;;;;;;5019567;28;20221;-83
2022/12/15 14:57:26;;;;;;;30.73;16.65;;;-0.10;99.90;;;;;;5019730;28;20207;-83
2022/12/15 14:59:53;;;;;;;30.13;17.45;;;-0.10;99.90;;;;;;5019481;28;20771;-82
2022/12/15 15:02:23;;;;;;;31.92;15.48;;;-0.20;99.90;;;;;;5019036;28;20616;-79
2022/12/15 15:05:02;;;;;;;35.55;18.50;;;-0.20;99.90;;;;;;5016766;28;20225;-80
2022/12/15 15:07:31;;;;;;;32.70;17.45;;;-0.30;99.90;;;;;;5018812;28;20225;-83
2022/12/15 15:09:58;;;;;;;34.10;17.27;;;-0.40;99.90;;;;;;5020455;28;20211;-83
2022/12/15 15:12:39;;;;;;;33.08;18.23;;;-0.40;99.90;;;;;;5019985;28;20241;-83
2022/12/15 15:15:08;;;;;;;34.80;18.58;;;-0.50;99.90;;;;;;5020429;28;20589;-83
2022/12/15 15:17:37;;;;;;;34.22;19.45;;;-0.50;99.90;;;;;;5021671;28;20659;-83
2022/12/15 15:20:16;;;;;;;34.55;18.40;;;-0.60;99.90;;;;;;5021753;28;20421;-83